sensor_id;sensor_type;location;lat;lon;timestamp;temperature;humidity
46652;DHT22;32377;52.182;5.398;2022-12-18T00:00:31;-3.20;99.90
46652;DHT22;32377;52.182;5.398;2022-12-18T00:02:57;-3.30;99.90
46652;DHT22;32377;52.182;5.398;2022-12-18T00:05:22;-3.30;99.90
46652;DHT22;32377;52.182;5.398;2022-12-18T00:07:48;-3.30;99.90
46652;DHT22;32377;52.182;5.398;2022-12-18T00:10:14;-3.30;99.90
46652;DHT22;32377;52.182;5.398;2022-12-18T00:12:40;-3.30;99.90
46652;DHT22;32377;52.182;5.398;2022-12-18T00:15:05;-3.40;99.90
46652;DHT22;32377;52.182;5.398;2022-12-18T00:17:31;-3.40;99.90
46652;DHT22;32377;52.182;5.398;2022-12-18T00:19:57;-3.40;99.90
46652;DHT22;32377;52.182;5.398;2022-12-18T00:22:22;-3.40;99.90
46652;DHT22;32377;52.182;5.398;2022-12-18T00:24:48;-3.40;99.90
46652;DHT22;32377;52.182;5.398;2022-12-18T00:27:13;-3.40;99.90
46652;DHT22;32377;52.182;5.398;2022-12-18T00:29:42;-3.40;99.90
46652;DHT22;32377;52.182;5.398;2022-12-18T00:32:07;-3.40;99.90
46652;DHT22;32377;52.182;5.398;2022-12-18T00:34:33;-3.50;99.90
46652;DHT22;32377;52.182;5.398;2022-12-18T00:36:59;-3.50;99.90
46652;DHT22;32377;52.182;5.398;2022-12-18T00:39:24;-3.50;99.90
46652;DHT22;32377;52.182;5.398;2022-12-18T00:41:50;-3.50;99.90
46652;DHT22;32377;52.182;5.398;2022-12-18T00:44:34;-3.50;99.90
46652;DHT22;32377;52.182;5.398;2022-12-18T00:46:59;-3.60;99.90
46652;DHT22;32377;52.182;5.398;2022-12-18T00:49:25;-3.60;99.90
46652;DHT22;32377;52.182;5.398;2022-12-18T00:51:50;-3.60;99.90
46652;DHT22;32377;52.182;5.398;2022-12-18T00:54:16;-3.70;99.90
46652;DHT22;32377;52.182;5.398;2022-12-18T00:56:42;-3.70;99.90
46652;DHT22;32377;52.182;5.398;2022-12-18T00:59:07;-3.70;99.90
46652;DHT22;32377;52.182;5.398;2022-12-18T01:01:33;-3.60;99.90
46652;DHT22;32377;52.182;5.398;2022-12-18T01:04:01;-3.70;99.90
46652;DHT22;32377;52.182;5.398;2022-12-18T01:06:27;-3.70;99.90
46652;DHT22;32377;52.182;5.398;2022-12-18T01:08:52;-3.80;99.90
46652;DHT22;32377;52.182;5.398;2022-12-18T01:11:19;-3.70;99.90
46652;DHT22;32377;52.182;5.398;2022-12-18T01:13:46;-3.60;99.90
46652;DHT22;32377;52.182;5.398;2022-12-18T01:16:13;-3.70;99.90
46652;DHT22;32377;52.182;5.398;2022-12-18T01:18:39;-3.70;99.90
46652;DHT22;32377;52.182;5.398;2022-12-18T01:21:08;-3.70;99.90
46652;DHT22;32377;52.182;5.398;2022-12-18T01:23:34;-3.70;99.90
46652;DHT22;32377;52.182;5.398;2022-12-18T01:26:12;-3.70;99.90
46652;DHT22;32377;52.182;5.398;2022-12-18T01:28:38;-3.60;99.90
46652;DHT22;32377;52.182;5.398;2022-12-18T01:31:19;-3.60;99.90
46652;DHT22;32377;52.182;5.398;2022-12-18T01:33:48;-3.60;99.90
46652;DHT22;32377;52.182;5.398;2022-12-18T01:36:19;-3.70;99.90
46652;DHT22;32377;52.182;5.398;2022-12-18T01:38:46;-3.80;99.90
46652;DHT22;32377;52.182;5.398;2022-12-18T01:41:12;-3.80;99.90
46652;DHT22;32377;52.182;5.398;2022-12-18T01:43:47;-3.80;99.90
46652;DHT22;32377;52.182;5.398;2022-12-18T01:46:14;-3.80;99.90
46652;DHT22;32377;52.182;5.398;2022-12-18T01:48:40;-3.80;99.90
46652;DHT22;32377;52.182;5.398;2022-12-18T01:51:08;-3.80;99.90
46652;DHT22;32377;52.182;5.398;2022-12-18T01:53:36;-3.80;99.90
46652;DHT22;32377;52.182;5.398;2022-12-18T01:56:02;-3.80;99.90
46652;DHT22;32377;52.182;5.398;2022-12-18T02:01:04;-3.90;99.90
46652;DHT22;32377;52.182;5.398;2022-12-18T02:03:29;-3.90;99.90
46652;DHT22;32377;52.182;5.398;2022-12-18T02:08:39;-4.00;99.90
46652;DHT22;32377;52.182;5.398;2022-12-18T02:13:40;-4.00;99.90
46652;DHT22;32377;52.182;5.398;2022-12-18T02:18:58;-4.10;99.90
46652;DHT22;32377;52.182;5.398;2022-12-18T02:21:40;-4.10;99.90
46652;DHT22;32377;52.182;5.398;2022-12-18T02:26:50;-4.10;99.90
46652;DHT22;32377;52.182;5.398;2022-12-18T02:29:25;-4.10;99.90
46652;DHT22;32377;52.182;5.398;2022-12-18T02:32:00;-4.20;99.90
46652;DHT22;32377;52.182;5.398;2022-12-18T02:34:30;-4.20;99.90
46652;DHT22;32377;52.182;5.398;2022-12-18T02:36:58;-4.20;99.90
46652;DHT22;32377;52.182;5.398;2022-12-18T02:39:26;-4.30;99.90
46652;DHT22;32377;52.182;5.398;2022-12-18T02:41:54;-4.20;99.90
46652;DHT22;32377;52.182;5.398;2022-12-18T02:44:20;-4.20;99.90
46652;DHT22;32377;52.182;5.398;2022-12-18T02:46:49;-4.30;99.90
46652;DHT22;32377;52.182;5.398;2022-12-18T02:49:27;-4.30;99.90
46652;DHT22;32377;52.182;5.398;2022-12-18T02:52:05;-4.40;99.90
46652;DHT22;32377;52.182;5.398;2022-12-18T02:54:37;-4.40;99.90
46652;DHT22;32377;52.182;5.398;2022-12-18T02:57:34;-4.40;99.90
46652;DHT22;32377;52.182;5.398;2022-12-18T03:00:16;-4.40;99.90
46652;DHT22;32377;52.182;5.398;2022-12-18T03:05:31;-4.50;99.90
46652;DHT22;32377;52.182;5.398;2022-12-18T03:08:07;-4.50;99.90
46652;DHT22;32377;52.182;5.398;2022-12-18T03:10:39;-4.50;99.90
46652;DHT22;32377;52.182;5.398;2022-12-18T03:13:10;-4.60;99.90
46652;DHT22;32377;52.182;5.398;2022-12-18T03:15:42;-4.60;99.90
46652;DHT22;32377;52.182;5.398;2022-12-18T03:18:15;-4.60;99.90
46652;DHT22;32377;52.182;5.398;2022-12-18T03:20:44;-4.60;99.90
46652;DHT22;32377;52.182;5.398;2022-12-18T03:23:18;-4.60;99.90
46652;DHT22;32377;52.182;5.398;2022-12-18T03:25:44;-4.60;99.90
46652;DHT22;32377;52.182;5.398;2022-12-18T03:28:20;-4.60;99.90
46652;DHT22;32377;52.182;5.398;2022-12-18T03:30:47;-4.70;99.90
46652;DHT22;32377;52.182;5.398;2022-12-18T03:33:21;-4.70;99.90
46652;DHT22;32377;52.182;5.398;2022-12-18T03:35:49;-4.70;99.90
46652;DHT22;32377;52.182;5.398;2022-12-18T03:38:15;-4.70;99.90
46652;DHT22;32377;52.182;5.398;2022-12-18T03:41:05;-4.70;99.90
46652;DHT22;32377;52.182;5.398;2022-12-18T03:43:49;-4.80;99.90
46652;DHT22;32377;52.182;5.398;2022-12-18T03:46:36;-4.80;99.90
46652;DHT22;32377;52.182;5.398;2022-12-18T03:51:37;-4.80;99.90
46652;DHT22;32377;52.182;5.398;2022-12-18T03:54:07;-4.80;99.90
46652;DHT22;32377;52.182;5.398;2022-12-18T03:56:39;-4.80;99.90
46652;DHT22;32377;52.182;5.398;2022-12-18T03:59:06;-4.90;99.90
46652;DHT22;32377;52.182;5.398;2022-12-18T04:01:35;-4.90;99.90
46652;DHT22;32377;52.182;5.398;2022-12-18T04:04:03;-4.90;99.90
46652;DHT22;32377;52.182;5.398;2022-12-18T04:06:30;-4.90;99.90
46652;DHT22;32377;52.182;5.398;2022-12-18T04:08:57;-4.90;99.90
46652;DHT22;32377;52.182;5.398;2022-12-18T04:11:23;-4.90;99.90
46652;DHT22;32377;52.182;5.398;2022-12-18T04:13:49;-4.90;99.90
46652;DHT22;32377;52.182;5.398;2022-12-18T04:16:14;-4.90;99.90
46652;DHT22;32377;52.182;5.398;2022-12-18T04:18:40;-4.90;99.90
46652;DHT22;32377;52.182;5.398;2022-12-18T04:21:05;-5.00;99.90
46652;DHT22;32377;52.182;5.398;2022-12-18T04:23:31;-5.00;99.90
46652;DHT22;32377;52.182;5.398;2022-12-18T04:25:56;-5.00;99.90
46652;DHT22;32377;52.182;5.398;2022-12-18T04:28:22;-5.00;99.90
46652;DHT22;32377;52.182;5.398;2022-12-18T04:30:48;-5.00;99.90
46652;DHT22;32377;52.182;5.398;2022-12-18T04:33:16;-5.00;99.90
46652;DHT22;32377;52.182;5.398;2022-12-18T04:35:42;-5.00;99.90
46652;DHT22;32377;52.182;5.398;2022-12-18T04:38:08;-5.00;99.90
46652;DHT22;32377;52.182;5.398;2022-12-18T04:40:37;-5.00;99.90
46652;DHT22;32377;52.182;5.398;2022-12-18T04:43:03;-5.00;99.90
46652;DHT22;32377;52.182;5.398;2022-12-18T04:45:33;-5.00;99.90
46652;DHT22;32377;52.182;5.398;2022-12-18T04:47:59;-5.10;99.90
46652;DHT22;32377;52.182;5.398;2022-12-18T04:50:25;-5.10;99.90
46652;DHT22;32377;52.182;5.398;2022-12-18T04:52:54;-5.10;99.90
46652;DHT22;32377;52.182;5.398;2022-12-18T04:55:20;-5.10;99.90
46652;DHT22;32377;52.182;5.398;2022-12-18T04:57:45;-5.10;99.90
46652;DHT22;32377;52.182;5.398;2022-12-18T05:00:12;-5.10;99.90
46652;DHT22;32377;52.182;5.398;2022-12-18T05:02:38;-5.10;99.90
46652;DHT22;32377;52.182;5.398;2022-12-18T05:05:04;-5.10;99.90
46652;DHT22;32377;52.182;5.398;2022-12-18T05:07:30;-5.10;99.90
46652;DHT22;32377;52.182;5.398;2022-12-18T05:09:55;-5.10;99.90
46652;DHT22;32377;52.182;5.398;2022-12-18T05:12:24;-5.10;99.90
46652;DHT22;32377;52.182;5.398;2022-12-18T05:14:50;-5.00;99.90
46652;DHT22;32377;52.182;5.398;2022-12-18T05:17:15;-5.00;99.90
46652;DHT22;32377;52.182;5.398;2022-12-18T05:19:41;-5.00;99.90
46652;DHT22;32377;52.182;5.398;2022-12-18T05:22:10;-5.10;99.90
46652;DHT22;32377;52.182;5.398;2022-12-18T05:24:35;-5.00;99.90
46652;DHT22;32377;52.182;5.398;2022-12-18T05:27:01;-5.10;99.90
46652;DHT22;32377;52.182;5.398;2022-12-18T05:29:26;-5.10;99.90
46652;DHT22;32377;52.182;5.398;2022-12-18T05:31:52;-5.00;99.90
46652;DHT22;32377;52.182;5.398;2022-12-18T05:34:18;-5.10;99.90
46652;DHT22;32377;52.182;5.398;2022-12-18T05:36:43;-5.10;99.90
46652;DHT22;32377;52.182;5.398;2022-12-18T05:39:09;-5.10;99.90
46652;DHT22;32377;52.182;5.398;2022-12-18T05:41:35;-5.10;99.90
46652;DHT22;32377;52.182;5.398;2022-12-18T05:44:02;-5.10;99.90
46652;DHT22;32377;52.182;5.398;2022-12-18T05:46:28;-5.10;99.90
46652;DHT22;32377;52.182;5.398;2022-12-18T05:48:55;-5.20;99.90
46652;DHT22;32377;52.182;5.398;2022-12-18T05:51:24;-5.10;99.90
46652;DHT22;32377;52.182;5.398;2022-12-18T05:53:49;-5.20;99.90
46652;DHT22;32377;52.182;5.398;2022-12-18T05:56:18;-5.20;99.90
46652;DHT22;32377;52.182;5.398;2022-12-18T05:58:44;-5.20;99.90
46652;DHT22;32377;52.182;5.398;2022-12-18T06:01:13;-5.30;99.90
46652;DHT22;32377;52.182;5.398;2022-12-18T06:03:39;-5.20;99.90
46652;DHT22;32377;52.182;5.398;2022-12-18T06:06:13;-5.30;99.90
46652;DHT22;32377;52.182;5.398;2022-12-18T06:08:40;-5.30;99.90
46652;DHT22;32377;52.182;5.398;2022-12-18T06:11:05;-5.30;99.90
46652;DHT22;32377;52.182;5.398;2022-12-18T06:13:31;-5.30;99.90
46652;DHT22;32377;52.182;5.398;2022-12-18T06:15:56;-5.40;99.90
46652;DHT22;32377;52.182;5.398;2022-12-18T06:18:22;-5.30;99.90
46652;DHT22;32377;52.182;5.398;2022-12-18T06:20:57;-5.40;99.90
46652;DHT22;32377;52.182;5.398;2022-12-18T06:23:23;-5.40;99.90
46652;DHT22;32377;52.182;5.398;2022-12-18T06:25:49;-5.40;99.90
46652;DHT22;32377;52.182;5.398;2022-12-18T06:28:15;-5.50;99.90
46652;DHT22;32377;52.182;5.398;2022-12-18T06:30:44;-5.50;99.90
46652;DHT22;32377;52.182;5.398;2022-12-18T06:33:10;-5.50;99.90
46652;DHT22;32377;52.182;5.398;2022-12-18T06:35:35;-5.50;99.90
46652;DHT22;32377;52.182;5.398;2022-12-18T06:38:02;-5.50;99.90
46652;DHT22;32377;52.182;5.398;2022-12-18T06:40:28;-5.50;99.90
46652;DHT22;32377;52.182;5.398;2022-12-18T06:42:54;-5.50;99.90
46652;DHT22;32377;52.182;5.398;2022-12-18T06:45:20;-5.50;99.90
46652;DHT22;32377;52.182;5.398;2022-12-18T06:47:45;-5.50;99.90
46652;DHT22;32377;52.182;5.398;2022-12-18T06:50:12;-5.50;99.90
46652;DHT22;32377;52.182;5.398;2022-12-18T06:52:38;-5.60;99.90
46652;DHT22;32377;52.182;5.398;2022-12-18T06:55:06;-5.60;99.90
46652;DHT22;32377;52.182;5.398;2022-12-18T06:57:33;-5.60;99.90
46652;DHT22;32377;52.182;5.398;2022-12-18T06:59:58;-5.60;99.90
46652;DHT22;32377;52.182;5.398;2022-12-18T07:02:24;-5.60;99.90
46652;DHT22;32377;52.182;5.398;2022-12-18T07:04:51;-5.60;99.90
46652;DHT22;32377;52.182;5.398;2022-12-18T07:07:16;-5.60;99.90
46652;DHT22;32377;52.182;5.398;2022-12-18T07:09:42;-5.60;99.90
46652;DHT22;32377;52.182;5.398;2022-12-18T07:12:08;-5.60;99.90
46652;DHT22;32377;52.182;5.398;2022-12-18T07:14:33;-5.60;99.90
46652;DHT22;32377;52.182;5.398;2022-12-18T07:16:59;-5.60;99.90
46652;DHT22;32377;52.182;5.398;2022-12-18T07:19:25;-5.60;99.90
46652;DHT22;32377;52.182;5.398;2022-12-18T07:21:51;-5.60;99.90
46652;DHT22;32377;52.182;5.398;2022-12-18T07:24:17;-5.60;99.90
46652;DHT22;32377;52.182;5.398;2022-12-18T07:26:42;-5.60;99.90
46652;DHT22;32377;52.182;5.398;2022-12-18T07:29:10;-5.60;99.90
46652;DHT22;32377;52.182;5.398;2022-12-18T07:31:36;-5.60;99.90
46652;DHT22;32377;52.182;5.398;2022-12-18T07:34:01;-5.60;99.90
46652;DHT22;32377;52.182;5.398;2022-12-18T07:36:27;-5.60;99.90
46652;DHT22;32377;52.182;5.398;2022-12-18T07:38:53;-5.60;99.90
46652;DHT22;32377;52.182;5.398;2022-12-18T07:41:19;-5.60;99.90
46652;DHT22;32377;52.182;5.398;2022-12-18T07:43:45;-5.50;99.90
46652;DHT22;32377;52.182;5.398;2022-12-18T07:46:11;-5.60;99.90
46652;DHT22;32377;52.182;5.398;2022-12-18T07:48:42;-5.60;99.90
46652;DHT22;32377;52.182;5.398;2022-12-18T07:51:09;-5.50;99.90
46652;DHT22;32377;52.182;5.398;2022-12-18T07:53:35;-5.60;99.90
46652;DHT22;32377;52.182;5.398;2022-12-18T07:56:04;-5.60;99.90
46652;DHT22;32377;52.182;5.398;2022-12-18T07:58:30;-5.50;99.90
46652;DHT22;32377;52.182;5.398;2022-12-18T08:01:09;-5.50;99.90
46652;DHT22;32377;52.182;5.398;2022-12-18T08:03:36;-5.50;99.90
46652;DHT22;32377;52.182;5.398;2022-12-18T08:06:06;-5.50;99.90
46652;DHT22;32377;52.182;5.398;2022-12-18T08:08:33;-5.40;99.90
46652;DHT22;32377;52.182;5.398;2022-12-18T08:10:59;-5.30;99.90
46652;DHT22;32377;52.182;5.398;2022-12-18T08:13:25;-5.30;99.90
46652;DHT22;32377;52.182;5.398;2022-12-18T08:16:05;-5.30;99.90
46652;DHT22;32377;52.182;5.398;2022-12-18T08:18:36;-5.30;99.90
46652;DHT22;32377;52.182;5.398;2022-12-18T08:23:38;-5.20;99.90
46652;DHT22;32377;52.182;5.398;2022-12-18T08:26:04;-5.10;99.90
46652;DHT22;32377;52.182;5.398;2022-12-18T08:28:29;-5.10;99.90
46652;DHT22;32377;52.182;5.398;2022-12-18T08:30:55;-5.00;99.90
46652;DHT22;32377;52.182;5.398;2022-12-18T08:33:21;-4.90;99.90
46652;DHT22;32377;52.182;5.398;2022-12-18T08:35:46;-4.90;99.90
46652;DHT22;32377;52.182;5.398;2022-12-18T08:38:12;-4.90;99.90
46652;DHT22;32377;52.182;5.398;2022-12-18T08:40:37;-4.90;99.90
46652;DHT22;32377;52.182;5.398;2022-12-18T08:43:03;-4.80;99.90
46652;DHT22;32377;52.182;5.398;2022-12-18T08:45:47;-4.80;99.90
46652;DHT22;32377;52.182;5.398;2022-12-18T08:48:12;-4.70;99.90
46652;DHT22;32377;52.182;5.398;2022-12-18T08:50:38;-4.70;99.90
46652;DHT22;32377;52.182;5.398;2022-12-18T08:53:04;-4.70;99.90
46652;DHT22;32377;52.182;5.398;2022-12-18T08:55:29;-4.70;99.90
46652;DHT22;32377;52.182;5.398;2022-12-18T08:57:55;-4.60;99.90
46652;DHT22;32377;52.182;5.398;2022-12-18T09:00:21;-4.60;99.90
46652;DHT22;32377;52.182;5.398;2022-12-18T09:02:46;-4.50;99.90
46652;DHT22;32377;52.182;5.398;2022-12-18T09:05:12;-4.40;99.90
46652;DHT22;32377;52.182;5.398;2022-12-18T09:07:37;-4.30;99.90
46652;DHT22;32377;52.182;5.398;2022-12-18T09:10:04;-4.20;99.90
46652;DHT22;32377;52.182;5.398;2022-12-18T09:12:29;-4.20;99.90
46652;DHT22;32377;52.182;5.398;2022-12-18T09:14:55;-4.10;99.90
46652;DHT22;32377;52.182;5.398;2022-12-18T09:17:21;-4.10;99.90
46652;DHT22;32377;52.182;5.398;2022-12-18T09:19:47;-4.00;99.90
46652;DHT22;32377;52.182;5.398;2022-12-18T09:22:13;-4.00;99.90
46652;DHT22;32377;52.182;5.398;2022-12-18T09:24:38;-3.90;99.90
46652;DHT22;32377;52.182;5.398;2022-12-18T09:27:04;-3.80;99.90
46652;DHT22;32377;52.182;5.398;2022-12-18T09:29:30;-3.70;99.90
46652;DHT22;32377;52.182;5.398;2022-12-18T09:31:55;-3.80;99.90
46652;DHT22;32377;52.182;5.398;2022-12-18T09:34:21;-3.70;99.90
46652;DHT22;32377;52.182;5.398;2022-12-18T09:36:47;-3.60;99.90
46652;DHT22;32377;52.182;5.398;2022-12-18T09:39:13;-3.60;99.90
46652;DHT22;32377;52.182;5.398;2022-12-18T09:41:50;-3.50;99.90
46652;DHT22;32377;52.182;5.398;2022-12-18T09:47:08;-3.50;99.90
46652;DHT22;32377;52.182;5.398;2022-12-18T09:49:41;-3.40;99.90
46652;DHT22;32377;52.182;5.398;2022-12-18T09:54:55;-3.30;99.90
46652;DHT22;32377;52.182;5.398;2022-12-18T09:57:23;-3.20;99.90
46652;DHT22;32377;52.182;5.398;2022-12-18T10:00:23;-3.20;99.90
46652;DHT22;32377;52.182;5.398;2022-12-18T10:02:49;-3.10;99.90
46652;DHT22;32377;52.182;5.398;2022-12-18T10:05:27;-3.00;99.90
46652;DHT22;32377;52.182;5.398;2022-12-18T10:10:57;-2.90;99.90
46652;DHT22;32377;52.182;5.398;2022-12-18T10:13:36;-2.80;99.90
46652;DHT22;32377;52.182;5.398;2022-12-18T10:16:15;-2.70;99.90
46652;DHT22;32377;52.182;5.398;2022-12-18T10:19:02;-2.70;99.90
46652;DHT22;32377;52.182;5.398;2022-12-18T10:21:37;-2.60;99.90
46652;DHT22;32377;52.182;5.398;2022-12-18T10:24:21;-2.50;99.90
46652;DHT22;32377;52.182;5.398;2022-12-18T10:26:49;-2.40;99.90
46652;DHT22;32377;52.182;5.398;2022-12-18T10:29:15;-2.30;99.90
46652;DHT22;32377;52.182;5.398;2022-12-18T10:31:42;-2.30;99.90
46652;DHT22;32377;52.182;5.398;2022-12-18T10:34:10;-2.20;99.90
46652;DHT22;32377;52.182;5.398;2022-12-18T10:36:36;-2.20;99.90
46652;DHT22;32377;52.182;5.398;2022-12-18T10:39:23;-2.20;99.90
46652;DHT22;32377;52.182;5.398;2022-12-18T10:41:48;-2.10;99.90
46652;DHT22;32377;52.182;5.398;2022-12-18T10:44:22;-2.10;99.90
46652;DHT22;32377;52.182;5.398;2022-12-18T10:47:03;-2.10;99.90
46652;DHT22;32377;52.182;5.398;2022-12-18T10:49:31;-2.00;99.90
46652;DHT22;32377;52.182;5.398;2022-12-18T10:52:23;-1.90;99.90
46652;DHT22;32377;52.182;5.398;2022-12-18T10:54:55;-1.90;99.90
46652;DHT22;32377;52.182;5.398;2022-12-18T10:59:56;-1.80;99.90
46652;DHT22;32377;52.182;5.398;2022-12-18T11:02:37;-1.80;99.90
46652;DHT22;32377;52.182;5.398;2022-12-18T11:05:23;-1.70;99.90
46652;DHT22;32377;52.182;5.398;2022-12-18T11:07:50;-1.70;99.90
46652;DHT22;32377;52.182;5.398;2022-12-18T11:10:20;-1.70;99.90
46652;DHT22;32377;52.182;5.398;2022-12-18T11:12:46;-1.60;99.90
46652;DHT22;32377;52.182;5.398;2022-12-18T11:15:28;-1.60;99.90
46652;DHT22;32377;52.182;5.398;2022-12-18T11:17:54;-1.50;99.90
46652;DHT22;32377;52.182;5.398;2022-12-18T11:20:31;-1.50;99.90
46652;DHT22;32377;52.182;5.398;2022-12-18T11:23:11;-1.50;99.90
46652;DHT22;32377;52.182;5.398;2022-12-18T11:25:38;-1.40;99.90
46652;DHT22;32377;52.182;5.398;2022-12-18T11:28:28;-1.40;99.90
46652;DHT22;32377;52.182;5.398;2022-12-18T11:31:17;-1.40;99.90
46652;DHT22;32377;52.182;5.398;2022-12-18T11:36:36;-1.30;99.90
46652;DHT22;32377;52.182;5.398;2022-12-18T11:39:10;-1.20;99.90
46652;DHT22;32377;52.182;5.398;2022-12-18T11:41:43;-1.20;99.90
46652;DHT22;32377;52.182;5.398;2022-12-18T11:44:38;-1.10;99.90
46652;DHT22;32377;52.182;5.398;2022-12-18T11:49:48;-1.00;99.90
46652;DHT22;32377;52.182;5.398;2022-12-18T11:52:24;-1.00;99.90
46652;DHT22;32377;52.182;5.398;2022-12-18T11:54:52;-1.00;99.90
46652;DHT22;32377;52.182;5.398;2022-12-18T11:57:41;-1.00;99.90
46652;DHT22;32377;52.182;5.398;2022-12-18T12:00:20;-1.00;99.90
46652;DHT22;32377;52.182;5.398;2022-12-18T12:06:06;-0.90;99.90
46652;DHT22;32377;52.182;5.398;2022-12-18T12:12:09;-0.80;99.90
46652;DHT22;32377;52.182;5.398;2022-12-18T12:17:13;-0.80;99.90
46652;DHT22;32377;52.182;5.398;2022-12-18T12:23:05;-0.80;99.90
46652;DHT22;32377;52.182;5.398;2022-12-18T12:25:46;-0.80;99.90
46652;DHT22;32377;52.182;5.398;2022-12-18T12:39:30;-0.70;99.90
46652;DHT22;32377;52.182;5.398;2022-12-18T12:41:57;-0.60;99.90
46652;DHT22;32377;52.182;5.398;2022-12-18T12:44:51;-0.60;99.90
46652;DHT22;32377;52.182;5.398;2022-12-18T12:47:30;-0.60;99.90
46652;DHT22;32377;52.182;5.398;2022-12-18T12:49:59;-0.60;99.90
46652;DHT22;32377;52.182;5.398;2022-12-18T12:52:42;-0.50;99.90
46652;DHT22;32377;52.182;5.398;2022-12-18T12:55:16;-0.50;99.90
46652;DHT22;32377;52.182;5.398;2022-12-18T12:58:15;-0.50;99.90
46652;DHT22;32377;52.182;5.398;2022-12-18T13:00:53;-0.50;99.90
46652;DHT22;32377;52.182;5.398;2022-12-18T13:06:23;-0.50;99.90
46652;DHT22;32377;52.182;5.398;2022-12-18T13:08:56;-0.50;99.90
46652;DHT22;32377;52.182;5.398;2022-12-18T13:11:40;-0.50;99.90
46652;DHT22;32377;52.182;5.398;2022-12-18T13:14:38;-0.50;99.90
46652;DHT22;32377;52.182;5.398;2022-12-18T13:20:03;-0.40;99.90
46652;DHT22;32377;52.182;5.398;2022-12-18T13:22:44;-0.40;99.90
46652;DHT22;32377;52.182;5.398;2022-12-18T13:25:36;-0.40;99.90
46652;DHT22;32377;52.182;5.398;2022-12-18T13:28:13;-0.40;99.90
46652;DHT22;32377;52.182;5.398;2022-12-18T13:30:45;-0.40;99.90
46652;DHT22;32377;52.182;5.398;2022-12-18T13:36:08;-0.40;99.90
46652;DHT22;32377;52.182;5.398;2022-12-18T13:38:36;-0.30;99.90
46652;DHT22;32377;52.182;5.398;2022-12-18T13:43:48;-0.40;99.90
46652;DHT22;32377;52.182;5.398;2022-12-18T13:51:44;-0.40;99.90
46652;DHT22;32377;52.182;5.398;2022-12-18T13:56:58;-0.40;99.90
46652;DHT22;32377;52.182;5.398;2022-12-18T13:59:25;-0.40;99.90
46652;DHT22;32377;52.182;5.398;2022-12-18T14:01:58;-0.40;99.90
46652;DHT22;32377;52.182;5.398;2022-12-18T14:04:25;-0.40;99.90
46652;DHT22;32377;52.182;5.398;2022-12-18T14:07:15;-0.40;99.90
46652;DHT22;32377;52.182;5.398;2022-12-18T14:09:44;-0.40;99.90
46652;DHT22;32377;52.182;5.398;2022-12-18T14:12:21;-0.40;99.90
46652;DHT22;32377;52.182;5.398;2022-12-18T14:17:42;-0.30;99.90
46652;DHT22;32377;52.182;5.398;2022-12-18T14:20:14;-0.30;99.90
46652;DHT22;32377;52.182;5.398;2022-12-18T14:22:46;-0.30;99.90
46652;DHT22;32377;52.182;5.398;2022-12-18T14:27:45;-0.30;99.90
46652;DHT22;32377;52.182;5.398;2022-12-18T14:30:33;-0.30;99.90
46652;DHT22;32377;52.182;5.398;2022-12-18T14:33:05;-0.30;99.90
46652;DHT22;32377;52.182;5.398;2022-12-18T14:35:33;-0.30;99.90
46652;DHT22;32377;52.182;5.398;2022-12-18T14:40:41;-0.30;99.90
46652;DHT22;32377;52.182;5.398;2022-12-18T14:43:10;-0.30;99.90
46652;DHT22;32377;52.182;5.398;2022-12-18T14:45:40;-0.30;99.90
46652;DHT22;32377;52.182;5.398;2022-12-18T14:48:09;-0.30;99.90
46652;DHT22;32377;52.182;5.398;2022-12-18T14:50:35;-0.30;99.90
46652;DHT22;32377;52.182;5.398;2022-12-18T14:53:00;-0.20;99.90
46652;DHT22;32377;52.182;5.398;2022-12-18T14:55:26;-0.20;99.90
46652;DHT22;32377;52.182;5.398;2022-12-18T14:57:54;-0.30;99.90
46652;DHT22;32377;52.182;5.398;2022-12-18T15:00:22;-0.30;99.90
46652;DHT22;32377;52.182;5.398;2022-12-18T15:02:52;-0.30;99.90
46652;DHT22;32377;52.182;5.398;2022-12-18T15:07:53;-0.30;99.90
46652;DHT22;32377;52.182;5.398;2022-12-18T15:18:34;-0.30;99.90
46652;DHT22;32377;52.182;5.398;2022-12-18T15:21:11;-0.30;99.90
46652;DHT22;32377;52.182;5.398;2022-12-18T15:23:48;-0.30;99.90
46652;DHT22;32377;52.182;5.398;2022-12-18T15:26:17;-0.30;99.90
46652;DHT22;32377;52.182;5.398;2022-12-18T15:33:41;-0.30;99.90
46652;DHT22;32377;52.182;5.398;2022-12-18T15:36:16;-0.30;99.90
46652;DHT22;32377;52.182;5.398;2022-12-18T15:38:45;-0.30;99.90
46652;DHT22;32377;52.182;5.398;2022-12-18T15:41:14;-0.20;99.90
46652;DHT22;32377;52.182;5.398;2022-12-18T15:43:40;-0.20;99.90
46652;DHT22;32377;52.182;5.398;2022-12-18T15:48:46;-0.20;99.90
46652;DHT22;32377;52.182;5.398;2022-12-18T15:51:19;-0.20;99.90
46652;DHT22;32377;52.182;5.398;2022-12-18T15:53:50;-0.20;99.90
46652;DHT22;32377;52.182;5.398;2022-12-18T15:56:17;-0.20;99.90
46652;DHT22;32377;52.182;5.398;2022-12-18T15:59:01;-0.20;99.90
46652;DHT22;32377;52.182;5.398;2022-12-18T16:01:30;-0.30;99.90
46652;DHT22;32377;52.182;5.398;2022-12-18T16:03:56;-0.20;99.90
46652;DHT22;32377;52.182;5.398;2022-12-18T16:06:23;-0.30;99.90
46652;DHT22;32377;52.182;5.398;2022-12-18T16:08:49;-0.30;99.90
46652;DHT22;32377;52.182;5.398;2022-12-18T16:11:26;-0.30;99.90
46652;DHT22;32377;52.182;5.398;2022-12-18T16:14:26;-0.30;99.90
46652;DHT22;32377;52.182;5.398;2022-12-18T16:16:57;-0.30;99.90
46652;DHT22;32377;52.182;5.398;2022-12-18T16:19:24;-0.30;99.90
46652;DHT22;32377;52.182;5.398;2022-12-18T16:21:51;-0.30;99.90
46652;DHT22;32377;52.182;5.398;2022-12-18T16:24:20;-0.30;99.90
46652;DHT22;32377;52.182;5.398;2022-12-18T16:26:48;-0.30;99.90
46652;DHT22;32377;52.182;5.398;2022-12-18T16:29:14;-0.30;99.90
46652;DHT22;32377;52.182;5.398;2022-12-18T16:31:40;-0.30;99.90
46652;DHT22;32377;52.182;5.398;2022-12-18T16:34:26;-0.30;99.90
46652;DHT22;32377;52.182;5.398;2022-12-18T16:36:58;-0.30;99.90
46652;DHT22;32377;52.182;5.398;2022-12-18T16:39:24;-0.20;99.90
46652;DHT22;32377;52.182;5.398;2022-12-18T16:41:50;-0.20;99.90
46652;DHT22;32377;52.182;5.398;2022-12-18T16:44:17;-0.20;99.90
46652;DHT22;32377;52.182;5.398;2022-12-18T16:46:43;-0.20;99.90
46652;DHT22;32377;52.182;5.398;2022-12-18T16:49:11;-0.20;99.90
46652;DHT22;32377;52.182;5.398;2022-12-18T16:51:37;-0.20;99.90
46652;DHT22;32377;52.182;5.398;2022-12-18T16:54:03;-0.20;99.90
46652;DHT22;32377;52.182;5.398;2022-12-18T16:56:29;-0.20;99.90
46652;DHT22;32377;52.182;5.398;2022-12-18T16:58:56;-0.20;99.90
46652;DHT22;32377;52.182;5.398;2022-12-18T17:01:24;-0.20;99.90
46652;DHT22;32377;52.182;5.398;2022-12-18T17:03:53;-0.20;99.90
46652;DHT22;32377;52.182;5.398;2022-12-18T17:06:21;-0.20;99.90
46652;DHT22;32377;52.182;5.398;2022-12-18T17:08:47;-0.20;99.90
46652;DHT22;32377;52.182;5.398;2022-12-18T17:11:13;-0.20;99.90
46652;DHT22;32377;52.182;5.398;2022-12-18T17:13:39;-0.20;99.90
46652;DHT22;32377;52.182;5.398;2022-12-18T17:16:06;-0.20;99.90
46652;DHT22;32377;52.182;5.398;2022-12-18T17:18:33;-0.10;99.90
46652;DHT22;32377;52.182;5.398;2022-12-18T17:21:00;-0.10;99.90
46652;DHT22;32377;52.182;5.398;2022-12-18T17:23:27;-0.10;99.90
46652;DHT22;32377;52.182;5.398;2022-12-18T17:25:56;-0.10;99.90
46652;DHT22;32377;52.182;5.398;2022-12-18T17:28:23;-0.10;99.90
46652;DHT22;32377;52.182;5.398;2022-12-18T17:30:51;-0.10;99.90
46652;DHT22;32377;52.182;5.398;2022-12-18T17:33:17;-0.10;99.90